^^
Grace C. Lehan Memorial Weather Station Historical Data
Daily Summary for July 2, 2022 Units:  Both    English   Metric
Daily Weekly Monthly Yearly
  High: Low: Average:
Temperature: 79.2 °F /  26.2 °C 54.7 °F /  12.6 °C 65.9 °F /  18.8 °C
Dew Point: 56.9 °F /  13.8 °C 49.5 °F /  9.7 °C 52.5 °F /  11.4 °C
Humidity: 85% 41.4% 64%
Wind Speed: 2.8mph /  4.5km/h - 0.3mph /  0.5km/h
Wind Gust: 10mph /  16.1km/h - -
Wind- - SE
Pressure: 30.25 in /  1024.3 hPa 30.06 in /  1017.8 hPa -
Precipitation: 0.00 in /  0 mm    
 
 
Tabular Data for July 2, 2022
Time Temperature Dew Point Pressure Wind Wind Speed Wind Gust Humidity Rainfall Rate (Hourly) solar
00:00 61.7 °F /  16.5 °C 51 °F /  10.6 °C 30.06in /  1017.8hPa Calm     68% 0.00in /  0mm 0 W/m2
00:08 61.5 °F /  16.4 °C 51.3 °F /  10.7 °C 30.06in /  1017.8hPa Calm     69% 0.00in /  0mm 0 W/m2
00:14 61.4 °F /  16.3 °C 51.1 °F /  10.6 °C 30.06in /  1017.8hPa Calm     69% 0.00in /  0mm 0 W/m2
00:19 61.2 °F /  16.2 °C 51 °F /  10.6 °C 30.06in /  1017.8hPa Calm     69% 0.00in /  0mm 0 W/m2
00:24 61.1 °F /  16.2 °C 50.9 °F /  10.5 °C 30.06in /  1017.8hPa Calm     69% 0.00in /  0mm 0 W/m2
00:29 61.1 °F /  16.2 °C 50.9 °F /  10.5 °C 30.06in /  1017.8hPa Calm     69% 0.00in /  0mm 0 W/m2
00:34 61 °F /  16.1 °C 50.8 °F /  10.4 °C 30.06in /  1017.8hPa Calm   2mph /  3.2km/h 69% 0.00in /  0mm 0 W/m2
00:39 61 °F /  16.1 °C 51.1 °F /  10.6 °C 30.06in /  1017.8hPa NW 0.1mph /  0.2km/h 2mph /  3.2km/h 70% 0.00in /  0mm 0 W/m2
00:44 60.9 °F /  16.1 °C 50.8 °F /  10.4 °C 30.06in /  1017.8hPa NW 0.2mph /  0.3km/h 4mph /  6.4km/h 69.5% 0.00in /  0mm 0 W/m2
00:48 60.8 °F /  16 °C 50.6 °F /  10.3 °C 30.06in /  1017.8hPa Calm   4mph /  6.4km/h 69% 0.00in /  0mm 0 W/m2
00:54 60.7 °F /  15.9 °C 50.6 °F /  10.3 °C 30.06in /  1017.8hPa Calm   4mph /  6.4km/h 69.4% 0.00in /  0mm 0 W/m2
00:59 60.7 °F /  15.9 °C 50.9 °F /  10.5 °C 30.06in /  1017.8hPa Calm   4mph /  6.4km/h 70% 0.00in /  0mm 0 W/m2
01:04 60.6 °F /  15.9 °C 50.8 °F /  10.4 °C 30.06in /  1017.8hPa NW 0.2mph /  0.3km/h 4mph /  6.4km/h 70% 0.00in /  0mm 0 W/m2
01:09 60.6 °F /  15.9 °C 50.8 °F /  10.4 °C 30.07in /  1018.2hPa Calm   3mph /  4.8km/h 70% 0.00in /  0mm 0 W/m2
01:14 60.5 °F /  15.8 °C 50.7 °F /  10.4 °C 30.07in /  1018.2hPa Calm   3mph /  4.8km/h 70% 0.00in /  0mm 0 W/m2
01:19 60.4 °F /  15.8 °C 50.6 °F /  10.3 °C 30.07in /  1018.2hPa NW 0.1mph /  0.2km/h 3mph /  4.8km/h 70% 0.00in /  0mm 0 W/m2
01:24 60.4 °F /  15.8 °C 50.6 °F /  10.3 °C 30.08in /  1018.5hPa Calm   3mph /  4.8km/h 70% 0.00in /  0mm 0 W/m2
01:29 60.3 °F /  15.7 °C 50.5 °F /  10.3 °C 30.08in /  1018.5hPa Calm   3mph /  4.8km/h 70% 0.00in /  0mm 0 W/m2
01:34 60.3 °F /  15.7 °C 50.5 °F /  10.3 °C 30.08in /  1018.5hPa NW 0.1mph /  0.2km/h 3mph /  4.8km/h 70.1% 0.00in /  0mm 0 W/m2
01:39 60.2 °F /  15.7 °C 50.8 °F /  10.4 °C 30.08in /  1018.5hPa Calm   2mph /  3.2km/h 71% 0.00in /  0mm 0 W/m2
01:44 60.1 °F /  15.6 °C 50.6 °F /  10.3 °C 30.08in /  1018.5hPa Calm   2mph /  3.2km/h 70.7% 0.00in /  0mm 0 W/m2
01:49 60.1 °F /  15.6 °C 50.3 °F /  10.2 °C 30.08in /  1018.5hPa Calm   2mph /  3.2km/h 70.2% 0.00in /  0mm 0 W/m2
01:54 60 °F /  15.6 °C 50.2 °F /  10.1 °C 30.08in /  1018.5hPa Calm   2mph /  3.2km/h 70% 0.00in /  0mm 0 W/m2
01:59 60 °F /  15.6 °C 50.5 °F /  10.3 °C 30.08in /  1018.5hPa Calm   2mph /  3.2km/h 71% 0.00in /  0mm 0 W/m2
02:04 59.9 °F /  15.5 °C 50.5 °F /  10.3 °C 30.08in /  1018.5hPa Calm   2mph /  3.2km/h 71% 0.00in /  0mm 0 W/m2
02:09 59.7 °F /  15.4 °C 50.4 °F /  10.2 °C 30.08in /  1018.5hPa NW 0.2mph /  0.3km/h 2mph /  3.2km/h 71.1% 0.00in /  0mm 0 W/m2
02:14 59.6 °F /  15.3 °C 50.6 °F /  10.3 °C 30.08in /  1018.5hPa NW 0.2mph /  0.3km/h 4mph /  6.4km/h 72% 0.00in /  0mm 0 W/m2
02:19 59.5 °F /  15.3 °C 50.5 °F /  10.3 °C 30.08in /  1018.5hPa NW 0.2mph /  0.3km/h 4mph /  6.4km/h 72% 0.00in /  0mm 0 W/m2
02:24 59.4 °F /  15.2 °C 50.5 °F /  10.3 °C 30.08in /  1018.5hPa Calm   4mph /  6.4km/h 72.3% 0.00in /  0mm 0 W/m2
02:29 59.3 °F /  15.2 °C 50.4 °F /  10.2 °C 30.09in /  1018.8hPa NW 0.1mph /  0.2km/h 4mph /  6.4km/h 72.2% 0.00in /  0mm 0 W/m2
02:34 59.2 °F /  15.1 °C 50.2 °F /  10.1 °C 30.09in /  1018.8hPa Calm   4mph /  6.4km/h 72% 0.00in /  0mm 0 W/m2
02:39 59.1 °F /  15.1 °C 50.5 °F /  10.3 °C 30.09in /  1018.8hPa Calm     72.9% 0.00in /  0mm 0 W/m2
02:44 59.1 °F /  15.1 °C 50.5 °F /  10.3 °C 30.09in /  1018.8hPa Calm     73% 0.00in /  0mm 0 W/m2
02:49 59 °F /  15 °C 50.4 °F /  10.2 °C 30.09in /  1018.8hPa Calm     73% 0.00in /  0mm 0 W/m2
02:54 58.9 °F /  14.9 °C 50.4 °F /  10.2 °C 30.10in /  1019.2hPa Calm     73.3% 0.00in /  0mm 0 W/m2
02:59 58.7 °F /  14.8 °C 50.3 °F /  10.2 °C 30.11in /  1019.5hPa Calm     73.7% 0.00in /  0mm 0 W/m2
03:04 58.6 °F /  14.8 °C 50.3 °F /  10.2 °C 30.11in /  1019.5hPa Calm     74% 0.00in /  0mm 0 W/m2
03:09 58.4 °F /  14.7 °C 50.4 °F /  10.2 °C 30.11in /  1019.5hPa Calm     74.6% 0.00in /  0mm 0 W/m2
03:14 58.2 °F /  14.6 °C 50.4 °F /  10.2 °C 30.11in /  1019.5hPa Calm     75% 0.00in /  0mm 0 W/m2
03:19 58.1 °F /  14.5 °C 50.2 °F /  10.1 °C 30.11in /  1019.5hPa Calm     75% 0.00in /  0mm 0 W/m2
03:24 58 °F /  14.4 °C 50.4 °F /  10.2 °C 30.12in /  1019.9hPa Calm     76% 0.00in /  0mm 0 W/m2
03:29 57.8 °F /  14.3 °C 50.3 °F /  10.2 °C 30.12in /  1019.9hPa Calm     76% 0.00in /  0mm 0 W/m2
03:34 57.7 °F /  14.3 °C 50.4 °F /  10.2 °C 30.12in /  1019.9hPa Calm     76.6% 0.00in /  0mm 0 W/m2
03:39 57.5 °F /  14.2 °C 50.4 °F /  10.2 °C 30.12in /  1019.9hPa Calm     77% 0.00in /  0mm 0 W/m2
03:44 57.4 °F /  14.1 °C 50.6 °F /  10.3 °C 30.12in /  1019.9hPa Calm     77.9% 0.00in /  0mm 0 W/m2
03:49 57.3 °F /  14.1 °C 50.5 °F /  10.3 °C 30.13in /  1020.2hPa Calm     78% 0.00in /  0mm 0 W/m2
03:54 57.2 °F /  14 °C 50.4 °F /  10.2 °C 30.13in /  1020.2hPa Calm     78% 0.00in /  0mm 0 W/m2
03:59 57.1 °F /  13.9 °C 50.3 °F /  10.2 °C 30.13in /  1020.2hPa Calm     78.2% 0.00in /  0mm 0 W/m2
04:00 57 °F /  13.9 °C 50.6 °F /  10.3 °C 30.13in /  1020.2hPa Calm     79% 0.00in /  0mm 0 W/m2
04:09 56.8 °F /  13.8 °C 50.4 °F /  10.2 °C 30.13in /  1020.2hPa Calm     79% 0.00in /  0mm 0 W/m2
04:14 56.7 °F /  13.7 °C 50.3 °F /  10.2 °C 30.14in /  1020.5hPa Calm     79% 0.00in /  0mm 0 W/m2
04:19 56.6 °F /  13.7 °C 50.2 °F /  10.1 °C 30.14in /  1020.5hPa Calm     79% 0.00in /  0mm 0 W/m2
04:24 56.5 °F /  13.6 °C 50.2 °F /  10.1 °C 30.14in /  1020.5hPa Calm     79.4% 0.00in /  0mm 0 W/m2
04:28 56.4 °F /  13.6 °C 50.3 °F /  10.2 °C 30.14in /  1020.5hPa Calm     80% 0.00in /  0mm 0 W/m2
04:34 56.3 °F /  13.5 °C 50.2 °F /  10.1 °C 30.14in /  1020.5hPa Calm     80% 0.00in /  0mm 0 W/m2
04:39 56.2 °F /  13.4 °C 50.1 °F /  10.1 °C 30.14in /  1020.5hPa Calm     80% 0.00in /  0mm 0 W/m2
04:44 56.1 °F /  13.4 °C 50.3 °F /  10.2 °C 30.14in /  1020.5hPa Calm     80.7% 0.00in /  0mm 0 W/m2
04:49 56 °F /  13.3 °C 50.3 °F /  10.2 °C 30.15in /  1020.9hPa Calm     81% 0.00in /  0mm 0 W/m2
04:54 56 °F /  13.3 °C 50.5 °F /  10.3 °C 30.15in /  1020.9hPa Calm     81.8% 0.00in /  0mm 0 W/m2
04:59 55.9 °F /  13.3 °C 50.5 °F /  10.3 °C 30.15in /  1020.9hPa Calm     82% 0.00in /  0mm 0 W/m2
05:04 55.8 °F /  13.2 °C 50.4 °F /  10.2 °C 30.15in /  1020.9hPa Calm     82% 0.00in /  0mm 0 W/m2
05:09 55.7 °F /  13.2 °C 50.3 °F /  10.2 °C 30.15in /  1020.9hPa Calm     82% 0.00in /  0mm 0 W/m2
05:14 55.7 °F /  13.2 °C 50.3 °F /  10.2 °C 30.15in /  1020.9hPa NW 0.1mph /  0.2km/h 3mph /  4.8km/h 82% 0.00in /  0mm 0 W/m2
05:19 55.7 °F /  13.2 °C 50.3 °F /  10.2 °C 30.16in /  1021.2hPa NW 0.1mph /  0.2km/h 3mph /  4.8km/h 82% 0.00in /  0mm 0 W/m2
05:24 55.7 °F /  13.2 °C 50.3 °F /  10.2 °C 30.16in /  1021.2hPa Calm   3mph /  4.8km/h 81.9% 0.00in /  0mm 0 W/m2
05:29 55.7 °F /  13.2 °C 50 °F /  10 °C 30.16in /  1021.2hPa Calm   3mph /  4.8km/h 81% 0.00in /  0mm 0 W/m2
05:34 55.7 °F /  13.2 °C 50 °F /  10 °C 30.16in /  1021.2hPa Calm   3mph /  4.8km/h 81% 0.00in /  0mm 0 W/m2
05:39 55.7 °F /  13.2 °C 50 °F /  10 °C 30.17in /  1021.6hPa Calm     81% 0.00in /  0mm 0 W/m2
05:44 55.7 °F /  13.2 °C 49.9 °F /  9.9 °C 30.17in /  1021.6hPa Calm     81% 0.00in /  0mm 0 W/m2
05:49 55.6 °F /  13.1 °C 49.9 °F /  9.9 °C 30.17in /  1021.6hPa Calm     81.1% 0.00in /  0mm 0 W/m2
05:54 55.5 °F /  13.1 °C 49.8 °F /  9.9 °C 30.17in /  1021.6hPa Calm     81% 0.00in /  0mm 0 W/m2
05:59 55.4 °F /  13 °C 49.7 °F /  9.8 °C 30.17in /  1021.6hPa Calm     81% 0.00in /  0mm 0 W/m2
06:04 55.3 °F /  12.9 °C 49.8 °F /  9.9 °C 30.17in /  1021.6hPa Calm     81.5% 0.00in /  0mm 0 W/m2
06:09 55.2 °F /  12.9 °C 49.5 °F /  9.7 °C 30.18in /  1021.9hPa Calm     81.1% 0.00in /  0mm 0 W/m2
06:14 55.1 °F /  12.8 °C 49.7 °F /  9.8 °C 30.18in /  1021.9hPa Calm     82% 0.00in /  0mm 0 W/m2
06:19 55 °F /  12.8 °C 49.6 °F /  9.8 °C 30.19in /  1022.2hPa Calm     82% 0.00in /  0mm 0 W/m2
06:24 54.9 °F /  12.7 °C 49.8 °F /  9.9 °C 30.19in /  1022.2hPa Calm     82.8% 0.00in /  0mm 5 W/m2
06:29 54.9 °F /  12.7 °C 49.8 °F /  9.9 °C 30.19in /  1022.2hPa Calm     83% 0.00in /  0mm 7 W/m2
06:34 54.9 °F /  12.7 °C 49.8 °F /  9.9 °C 30.20in /  1022.6hPa Calm     83% 0.00in /  0mm 9 W/m2
06:39 54.8 °F /  12.7 °C 49.7 °F /  9.8 °C 30.20in /  1022.6hPa Calm     83% 0.00in /  0mm 9 W/m2
06:44 54.8 °F /  12.7 °C 50.1 °F /  10.1 °C 30.20in /  1022.6hPa Calm     84% 0.00in /  0mm 14 W/m2
06:49 54.7 °F /  12.6 °C 50 °F /  10 °C 30.20in /  1022.6hPa Calm     84% 0.00in /  0mm 21 W/m2
06:54 54.7 °F /  12.6 °C 50 °F /  10 °C 30.21in /  1022.9hPa Calm     84% 0.00in /  0mm 30 W/m2
06:59 54.7 °F /  12.6 °C 50.2 °F /  10.1 °C 30.21in /  1022.9hPa Calm     84.7% 0.00in /  0mm 32 W/m2
07:04 54.8 °F /  12.7 °C 50.4 °F /  10.2 °C 30.21in /  1022.9hPa Calm     85% 0.00in /  0mm 26 W/m2
07:09 55 °F /  12.8 °C 50.5 °F /  10.3 °C 30.22in /  1023.2hPa Calm     85% 0.00in /  0mm 28 W/m2
07:14 55.1 °F /  12.8 °C 50.3 °F /  10.2 °C 30.22in /  1023.2hPa Calm     84.1% 0.00in /  0mm 32 W/m2
07:19 55.3 °F /  12.9 °C 50.5 °F /  10.3 °C 30.22in /  1023.2hPa Calm     84% 0.00in /  0mm 32 W/m2
07:24 55.4 °F /  13 °C 50.6 °F /  10.3 °C 30.22in /  1023.2hPa Calm     83.8% 0.00in /  0mm 30 W/m2
07:29 55.7 °F /  13.2 °C 50.6 °F /  10.3 °C 30.22in /  1023.2hPa NW 0.1mph /  0.2km/h 2mph /  3.2km/h 83% 0.00in /  0mm 33 W/m2
07:34 56 °F /  13.3 °C 50.6 °F /  10.3 °C 30.23in /  1023.6hPa Calm   2mph /  3.2km/h 82.2% 0.00in /  0mm 33 W/m2
07:39 56.2 °F /  13.4 °C 50.8 °F /  10.4 °C 30.23in /  1023.6hPa North 0.1mph /  0.2km/h 2mph /  3.2km/h 82% 0.00in /  0mm 33 W/m2
07:44 56.5 °F /  13.6 °C 50.7 °F /  10.4 °C 30.23in /  1023.6hPa NNE 0.3mph /  0.5km/h 4mph /  6.4km/h 81.1% 0.00in /  0mm 33 W/m2
07:49 56.7 °F /  13.7 °C 50.9 °F /  10.5 °C 30.23in /  1023.6hPa ENE 0.1mph /  0.2km/h 4mph /  6.4km/h 80.7% 0.00in /  0mm 39 W/m2
07:54 57 °F /  13.9 °C 50.9 °F /  10.5 °C 30.23in /  1023.6hPa Calm   4mph /  6.4km/h 80% 0.00in /  0mm 40 W/m2
07:59 57.2 °F /  14 °C 51 °F /  10.6 °C 30.23in /  1023.6hPa ENE 0.7mph /  1.1km/h 4mph /  6.4km/h 79.7% 0.00in /  0mm 44 W/m2
08:00 57.4 °F /  14.1 °C 51 °F /  10.6 °C 30.23in /  1023.6hPa Calm   4mph /  6.4km/h 79% 0.00in /  0mm 44 W/m2
08:09 57.8 °F /  14.3 °C 51.2 °F /  10.7 °C 30.23in /  1023.6hPa ENE 0.1mph /  0.2km/h 3mph /  4.8km/h 78.7% 0.00in /  0mm 67 W/m2
08:14 58 °F /  14.4 °C 51.2 °F /  10.7 °C 30.23in /  1023.6hPa ENE 0.1mph /  0.2km/h 3mph /  4.8km/h 78% 0.00in /  0mm 74 W/m2
08:19 58.3 °F /  14.6 °C 51.4 °F /  10.8 °C 30.23in /  1023.6hPa ENE 0.4mph /  0.6km/h 5mph /  8km/h 77.9% 0.00in /  0mm 98 W/m2
08:24 58.6 °F /  14.8 °C 51.6 °F /  10.9 °C 30.23in /  1023.6hPa North 0.4mph /  0.6km/h 5mph /  8km/h 77.6% 0.00in /  0mm 387 W/m2
08:29 59.2 °F /  15.1 °C 52.2 °F /  11.2 °C 30.23in /  1023.6hPa NE 0.8mph /  1.3km/h 5mph /  8km/h 77.7% 0.00in /  0mm 410 W/m2
08:34 60.1 °F /  15.6 °C 52.1 °F /  11.2 °C 30.23in /  1023.6hPa NE 0.2mph /  0.3km/h 5mph /  8km/h 75% 0.00in /  0mm 427 W/m2
08:39 61 °F /  16.1 °C 52.5 °F /  11.4 °C 30.23in /  1023.6hPa NE 0.3mph /  0.5km/h 3mph /  4.8km/h 73.5% 0.00in /  0mm 443 W/m2
08:44 62 °F /  16.7 °C 52.4 °F /  11.3 °C 30.23in /  1023.6hPa ENE 0.2mph /  0.3km/h 3mph /  4.8km/h 70.7% 0.00in /  0mm 459 W/m2
08:49 62.9 °F /  17.2 °C 52.9 °F /  11.6 °C 30.23in /  1023.6hPa Calm   3mph /  4.8km/h 69.8% 0.00in /  0mm 473 W/m2
08:54 63.9 °F /  17.7 °C 53.6 °F /  12 °C 30.23in /  1023.6hPa North 0.1mph /  0.2km/h 5mph /  8km/h 69.2% 0.00in /  0mm 494 W/m2
08:59 64.8 °F /  18.2 °C 53.7 °F /  12.1 °C 30.23in /  1023.6hPa NNW 0.4mph /  0.6km/h 5mph /  8km/h 67.2% 0.00in /  0mm 513 W/m2
09:04 65.7 °F /  18.7 °C 53.7 °F /  12.1 °C 30.23in /  1023.6hPa NNW 0.1mph /  0.2km/h 5mph /  8km/h 65.3% 0.00in /  0mm 524 W/m2
09:09 66.6 °F /  19.2 °C 54.3 °F /  12.4 °C 30.24in /  1023.9hPa Calm   1mph /  1.6km/h 64.6% 0.00in /  0mm 533 W/m2
09:14 67.2 °F /  19.6 °C 53.5 °F /  11.9 °C 30.24in /  1023.9hPa NE 1.6mph /  2.6km/h 5mph /  8km/h 61.4% 0.00in /  0mm 547 W/m2
09:19 67.5 °F /  19.7 °C 54 °F /  12.2 °C 30.24in /  1023.9hPa ENE 0.2mph /  0.3km/h 5mph /  8km/h 61.9% 0.00in /  0mm 561 W/m2
09:24 67.9 °F /  19.9 °C 53.7 °F /  12.1 °C 30.24in /  1023.9hPa East 1mph /  1.6km/h 5mph /  8km/h 60.3% 0.00in /  0mm 577 W/m2
09:29 68.2 °F /  20.1 °C 54 °F /  12.2 °C 30.24in /  1023.9hPa East 0.3mph /  0.5km/h 5mph /  8km/h 60.3% 0.00in /  0mm 591 W/m2
09:34 68.9 °F /  20.5 °C 54.1 °F /  12.3 °C 30.24in /  1023.9hPa NE 1.2mph /  1.9km/h 5mph /  8km/h 59.3% 0.00in /  0mm 603 W/m2
09:39 69.5 °F /  20.8 °C 54.3 °F /  12.4 °C 30.24in /  1023.9hPa NNE 0.1mph /  0.2km/h 5mph /  8km/h 58.5% 0.00in /  0mm 619 W/m2
09:44 69.9 °F /  21.1 °C 53.9 °F /  12.2 °C 30.24in /  1023.9hPa NNE 0.2mph /  0.3km/h 5mph /  8km/h 56.6% 0.00in /  0mm 631 W/m2
09:49 70.3 °F /  21.3 °C 54.1 °F /  12.3 °C 30.25in /  1024.3hPa NE 0.4mph /  0.6km/h 5mph /  8km/h 56.6% 0.00in /  0mm 647 W/m2
09:54 70.4 °F /  21.3 °C 53.3 °F /  11.8 °C 30.25in /  1024.3hPa NE 0.4mph /  0.6km/h 5mph /  8km/h 54.6% 0.00in /  0mm 657 W/m2
09:59 70.7 °F /  21.5 °C 53.3 °F /  11.8 °C 30.25in /  1024.3hPa NE 1.3mph /  2.1km/h 5mph /  8km/h 54.1% 0.00in /  0mm 671 W/m2
10:04 70.7 °F /  21.5 °C 52.4 °F /  11.3 °C 30.25in /  1024.3hPa ENE 1.7mph /  2.7km/h 6mph /  9.7km/h 52.3% 0.00in /  0mm 682 W/m2
10:09 70.5 °F /  21.4 °C 52.3 °F /  11.3 °C 30.25in /  1024.3hPa ENE 2.2mph /  3.5km/h 7mph /  11.3km/h 52.6% 0.00in /  0mm 693 W/m2
10:14 70.5 °F /  21.4 °C 52.8 °F /  11.6 °C 30.25in /  1024.3hPa ENE 0.3mph /  0.5km/h 7mph /  11.3km/h 53.5% 0.00in /  0mm 703 W/m2
10:19 70.7 °F /  21.5 °C 53.2 °F /  11.8 °C 30.25in /  1024.3hPa NE 1.5mph /  2.4km/h 7mph /  11.3km/h 53.9% 0.00in /  0mm 712 W/m2
10:24 71.2 °F /  21.8 °C 54.2 °F /  12.3 °C 30.25in /  1024.3hPa NW 1.2mph /  1.9km/h 7mph /  11.3km/h 55.1% 0.00in /  0mm 724 W/m2
10:29 71.8 °F /  22.1 °C 54.2 °F /  12.3 °C 30.25in /  1024.3hPa NNW 0.8mph /  1.3km/h 7mph /  11.3km/h 54% 0.00in /  0mm 735 W/m2
10:34 71.9 °F /  22.2 °C 52.9 °F /  11.6 °C 30.25in /  1024.3hPa East 1.7mph /  2.7km/h 7mph /  11.3km/h 51.2% 0.00in /  0mm 744 W/m2
10:39 71.3 °F /  21.8 °C 53 °F /  11.7 °C 30.25in /  1024.3hPa ENE 0.9mph /  1.4km/h 6mph /  9.7km/h 52.4% 0.00in /  0mm 754 W/m2
10:44 71.5 °F /  21.9 °C 53.1 °F /  11.7 °C 30.24in /  1023.9hPa ENE 0.8mph /  1.3km/h 6mph /  9.7km/h 52.3% 0.00in /  0mm 765 W/m2
10:49 71.9 °F /  22.2 °C 52.5 °F /  11.4 °C 30.24in /  1023.9hPa ENE 0.6mph /  1km/h 6mph /  9.7km/h 50.3% 0.00in /  0mm 775 W/m2
10:54 72.3 °F /  22.4 °C 53 °F /  11.7 °C 30.25in /  1024.3hPa SE 2.8mph /  4.5km/h 10mph /  16.1km/h 50.7% 0.00in /  0mm 784 W/m2
10:59 72.4 °F /  22.4 °C 52.5 °F /  11.4 °C 30.25in /  1024.3hPa East 0.5mph /  0.8km/h 10mph /  16.1km/h 49.6% 0.00in /  0mm 791 W/m2
11:04 72.7 °F /  22.6 °C 53.6 °F /  12 °C 30.25in /  1024.3hPa NNE 0.8mph /  1.3km/h 10mph /  16.1km/h 51.1% 0.00in /  0mm 802 W/m2
11:09 73.1 °F /  22.8 °C 53.2 °F /  11.8 °C 30.25in /  1024.3hPa North 0.2mph /  0.3km/h 5mph /  8km/h 49.6% 0.00in /  0mm 809 W/m2
11:14 73.5 °F /  23.1 °C 53.6 °F /  12 °C 30.25in /  1024.3hPa NNW 1.6mph /  2.6km/h 5mph /  8km/h 49.8% 0.00in /  0mm 817 W/m2
11:19 73.8 °F /  23.2 °C 53 °F /  11.7 °C 30.25in /  1024.3hPa NNW 0.5mph /  0.8km/h 5mph /  8km/h 48.3% 0.00in /  0mm 826 W/m2
11:24 73.7 °F /  23.2 °C 53.1 °F /  11.7 °C 30.24in /  1023.9hPa NE 0.7mph /  1.1km/h 5mph /  8km/h 48.6% 0.00in /  0mm 833 W/m2
11:29 73.4 °F /  23 °C 53.1 °F /  11.7 °C 30.25in /  1024.3hPa East 1.5mph /  2.4km/h 6mph /  9.7km/h 49% 0.00in /  0mm 838 W/m2
11:34 73.5 °F /  23.1 °C 54.6 °F /  12.6 °C 30.24in /  1023.9hPa NE 0.2mph /  0.3km/h 6mph /  9.7km/h 51.7% 0.00in /  0mm 846 W/m2
11:39 73.5 °F /  23.1 °C 53.6 °F /  12 °C 30.24in /  1023.9hPa Calm   2mph /  3.2km/h 49.7% 0.00in /  0mm 849 W/m2
11:44 73.3 °F /  22.9 °C 53.2 °F /  11.8 °C 30.24in /  1023.9hPa NE 0.5mph /  0.8km/h 3mph /  4.8km/h 49.4% 0.00in /  0mm 856 W/m2
11:49 73 °F /  22.8 °C 53.8 °F /  12.1 °C 30.24in /  1023.9hPa ENE 0.7mph /  1.1km/h 5mph /  8km/h 51% 0.00in /  0mm 860 W/m2
11:54 73 °F /  22.8 °C 53.2 °F /  11.8 °C 30.24in /  1023.9hPa ENE 0.2mph /  0.3km/h 5mph /  8km/h 49.8% 0.00in /  0mm 865 W/m2
11:59 73.1 °F /  22.8 °C 53.5 °F /  11.9 °C 30.24in /  1023.9hPa East 0.7mph /  1.1km/h 5mph /  8km/h 50.2% 0.00in /  0mm 861 W/m2
12:00 73.1 °F /  22.8 °C 52.8 °F /  11.6 °C 30.24in /  1023.9hPa ENE 2mph /  3.2km/h 5mph /  8km/h 49% 0.00in /  0mm 454 W/m2
12:09 72.7 °F /  22.6 °C 53.5 °F /  11.9 °C 30.24in /  1023.9hPa NNW 1.3mph /  2.1km/h 6mph /  9.7km/h 51% 0.00in /  0mm 58 W/m2
12:14 72.5 °F /  22.5 °C 52.3 °F /  11.3 °C 30.24in /  1023.9hPa WNW 1.7mph /  2.7km/h 7mph /  11.3km/h 49.1% 0.00in /  0mm 83 W/m2
12:19 72.2 °F /  22.3 °C 52.6 °F /  11.4 °C 30.24in /  1023.9hPa NE 1.3mph /  2.1km/h 7mph /  11.3km/h 50% 0.00in /  0mm 105 W/m2
12:24 72.1 °F /  22.3 °C 53.1 °F /  11.7 °C 30.24in /  1023.9hPa NE 0.7mph /  1.1km/h 7mph /  11.3km/h 51.3% 0.00in /  0mm 105 W/m2
12:29 71.6 °F /  22 °C 53 °F /  11.7 °C 30.24in /  1023.9hPa ENE 0.9mph /  1.4km/h 7mph /  11.3km/h 51.9% 0.00in /  0mm 134 W/m2
12:34 71.3 °F /  21.8 °C 52.8 °F /  11.6 °C 30.24in /  1023.9hPa Calm   7mph /  11.3km/h 52% 0.00in /  0mm 151 W/m2
12:39 71.3 °F /  21.8 °C 53.3 °F /  11.8 °C 30.24in /  1023.9hPa ENE 0.5mph /  0.8km/h 4mph /  6.4km/h 52.9% 0.00in /  0mm 171 W/m2
12:44 71.5 °F /  21.9 °C 53.5 °F /  11.9 °C 30.24in /  1023.9hPa North 0.5mph /  0.8km/h 5mph /  8km/h 53% 0.00in /  0mm 199 W/m2
12:49 71.7 °F /  22.1 °C 53.5 °F /  11.9 °C 30.24in /  1023.9hPa NNE 1mph /  1.6km/h 5mph /  8km/h 52.6% 0.00in /  0mm 255 W/m2
12:54 71.7 °F /  22.1 °C 53.2 °F /  11.8 °C 30.24in /  1023.9hPa NNW 2mph /  3.2km/h 5mph /  8km/h 52.2% 0.00in /  0mm 889 W/m2
12:59 71.8 °F /  22.1 °C 53.6 °F /  12 °C 30.24in /  1023.9hPa NW 2.1mph /  3.4km/h 9mph /  14.5km/h 52.7% 0.00in /  0mm 893 W/m2
13:04 72 °F /  22.2 °C 53.3 °F /  11.8 °C 30.24in /  1023.9hPa NW 0.4mph /  0.6km/h 9mph /  14.5km/h 51.7% 0.00in /  0mm 895 W/m2
13:09 72.3 °F /  22.4 °C 53.7 °F /  12.1 °C 30.24in /  1023.9hPa NNE 0.4mph /  0.6km/h 4mph /  6.4km/h 52% 0.00in /  0mm 877 W/m2
13:14 72.5 °F /  22.5 °C 53.8 °F /  12.1 °C 30.24in /  1023.9hPa ENE 0.5mph /  0.8km/h 4mph /  6.4km/h 51.9% 0.00in /  0mm 877 W/m2
13:15 72.5 °F /  22.5 °C 53.4 °F /  11.9 °C 30.24in /  1023.9hPa Calm   4mph /  6.4km/h 51% 0.00in /  0mm 53 W/m2
13:30 72.6 °F /  22.6 °C 54.5 °F /  12.5 °C 30.23in /  1023.6hPa Calm   5mph /  8km/h 53% 0.00in /  0mm 527 W/m2
14:00 73.3 °F /  22.9 °C 52.5 °F /  11.4 °C 30.23in /  1023.6hPa Calm   5mph /  8km/h 48% 0.00in /  0mm 587 W/m2
14:30 75.7 °F /  24.3 °C 54.6 °F /  12.6 °C 30.22in /  1023.2hPa Calm   4mph /  6.4km/h 48% 0.00in /  0mm 842 W/m2
15:00 77.6 °F /  25.3 °C 52.7 °F /  11.5 °C 30.22in /  1023.2hPa NE 1mph /  1.6km/h 6mph /  9.7km/h 42% 0.00in /  0mm 801 W/m2
15:30 79.2 °F /  26.2 °C 54.2 °F /  12.3 °C 30.21in /  1022.9hPa NE 1mph /  1.6km/h 6mph /  9.7km/h 42% 0.00in /  0mm 741 W/m2
16:04 78.4 °F /  25.8 °C 53 °F /  11.7 °C 30.21in /  1022.9hPa East 0.2mph /  0.3km/h 1mph /  1.6km/h 41.4% 0.00in /  0mm 40 W/m2
16:09 78.3 °F /  25.7 °C 54.2 °F /  12.3 °C 30.21in /  1022.9hPa ENE 0.8mph /  1.3km/h 4mph /  6.4km/h 43.3% 0.00in /  0mm 40 W/m2
16:14 78.1 °F /  25.6 °C 53.8 °F /  12.1 °C 30.21in /  1022.9hPa ENE 0.4mph /  0.6km/h 4mph /  6.4km/h 43% 0.00in /  0mm 39 W/m2
16:19 77.9 °F /  25.5 °C 53.5 °F /  11.9 °C 30.21in /  1022.9hPa Calm   4mph /  6.4km/h 42.9% 0.00in /  0mm 37 W/m2
16:24 77.6 °F /  25.3 °C 53.5 °F /  11.9 °C 30.21in /  1022.9hPa ENE 0.1mph /  0.2km/h 4mph /  6.4km/h 43.2% 0.00in /  0mm 37 W/m2
16:29 77.3 °F /  25.2 °C 53.9 °F /  12.2 °C 30.21in /  1022.9hPa Calm   4mph /  6.4km/h 44.3% 0.00in /  0mm 35 W/m2
16:34 77 °F /  25 °C 53.4 °F /  11.9 °C 30.21in /  1022.9hPa ENE 0.8mph /  1.3km/h 4mph /  6.4km/h 43.8% 0.00in /  0mm 35 W/m2
16:39 76.8 °F /  24.9 °C 53.2 °F /  11.8 °C 30.21in /  1022.9hPa Calm   4mph /  6.4km/h 44% 0.00in /  0mm 33 W/m2
16:43 76.6 °F /  24.8 °C 53.5 °F /  11.9 °C 30.21in /  1022.9hPa Calm   4mph /  6.4km/h 44.7% 0.00in /  0mm 33 W/m2
16:49 76.7 °F /  24.8 °C 54 °F /  12.2 °C 30.21in /  1022.9hPa ENE 0.4mph /  0.6km/h 4mph /  6.4km/h 45.4% 0.00in /  0mm 33 W/m2
16:54 76.8 °F /  24.9 °C 53.9 °F /  12.2 °C 30.21in /  1022.9hPa Calm   4mph /  6.4km/h 45% 0.00in /  0mm 32 W/m2
16:59 76.8 °F /  24.9 °C 53.9 °F /  12.2 °C 30.21in /  1022.9hPa Calm   4mph /  6.4km/h 45% 0.00in /  0mm 32 W/m2
17:04 76.8 °F /  24.9 °C 54.2 °F /  12.3 °C 30.21in /  1022.9hPa Calm   4mph /  6.4km/h 45.5% 0.00in /  0mm 32 W/m2
17:09 76.8 °F /  24.9 °C 54.6 °F /  12.6 °C 30.21in /  1022.9hPa ENE 0.2mph /  0.3km/h 2mph /  3.2km/h 46.1% 0.00in /  0mm 32 W/m2
17:14 76.9 °F /  24.9 °C 54.5 °F /  12.5 °C 30.21in /  1022.9hPa East 0.4mph /  0.6km/h 3mph /  4.8km/h 45.9% 0.00in /  0mm 32 W/m2
17:19 76.9 °F /  24.9 °C 54.2 °F /  12.3 °C 30.21in /  1022.9hPa East 0.4mph /  0.6km/h 4mph /  6.4km/h 45.4% 0.00in /  0mm 30 W/m2
17:24 76.9 °F /  24.9 °C 54.5 °F /  12.5 °C 30.21in /  1022.9hPa East 0.1mph /  0.2km/h 4mph /  6.4km/h 45.9% 0.00in /  0mm 30 W/m2
17:29 76.9 °F /  24.9 °C 54.6 °F /  12.6 °C 30.21in /  1022.9hPa Calm   4mph /  6.4km/h 46% 0.00in /  0mm 30 W/m2
17:34 76.8 °F /  24.9 °C 54.5 °F /  12.5 °C 30.21in /  1022.9hPa Calm   4mph /  6.4km/h 46% 0.00in /  0mm 30 W/m2
17:39 76.8 °F /  24.9 °C 54.6 °F /  12.6 °C 30.21in /  1022.9hPa East 0.1mph /  0.2km/h 2mph /  3.2km/h 46.2% 0.00in /  0mm 30 W/m2
17:44 76.7 °F /  24.8 °C 54.4 °F /  12.4 °C 30.21in /  1022.9hPa Calm   2mph /  3.2km/h 45.9% 0.00in /  0mm 28 W/m2
17:49 76.7 °F /  24.8 °C 54.5 °F /  12.5 °C 30.21in /  1022.9hPa East 0.1mph /  0.2km/h 2mph /  3.2km/h 46.1% 0.00in /  0mm 28 W/m2
17:54 76.6 °F /  24.8 °C 54.9 °F /  12.7 °C 30.21in /  1022.9hPa East 0.1mph /  0.2km/h 2mph /  3.2km/h 46.9% 0.00in /  0mm 28 W/m2
17:59 76.6 °F /  24.8 °C 54.5 °F /  12.5 °C 30.21in /  1022.9hPa Calm   2mph /  3.2km/h 46.3% 0.00in /  0mm 26 W/m2
18:04 76.6 °F /  24.8 °C 54.7 °F /  12.6 °C 30.21in /  1022.9hPa Calm   2mph /  3.2km/h 46.7% 0.00in /  0mm 25 W/m2
18:09 76.6 °F /  24.8 °C 54.5 °F /  12.5 °C 30.22in /  1023.2hPa Calm     46.4% 0.00in /  0mm 25 W/m2
18:14 76.5 °F /  24.7 °C 54.2 °F /  12.3 °C 30.22in /  1023.2hPa Calm     46% 0.00in /  0mm 25 W/m2
18:19 76.5 °F /  24.7 °C 54.4 °F /  12.4 °C 30.22in /  1023.2hPa Calm     46.4% 0.00in /  0mm 23 W/m2
18:24 76.4 °F /  24.7 °C 54.1 °F /  12.3 °C 30.22in /  1023.2hPa Calm     46% 0.00in /  0mm 23 W/m2
18:29 76.3 °F /  24.6 °C 54.1 °F /  12.3 °C 30.22in /  1023.2hPa Calm     46% 0.00in /  0mm 21 W/m2
18:34 76.2 °F /  24.6 °C 54 °F /  12.2 °C 30.22in /  1023.2hPa Calm     46.1% 0.00in /  0mm 21 W/m2
18:39 76.2 °F /  24.6 °C 54.5 °F /  12.5 °C 30.21in /  1022.9hPa Calm     47% 0.00in /  0mm 19 W/m2
18:44 76.1 °F /  24.5 °C 54.8 °F /  12.7 °C 30.21in /  1022.9hPa Calm     47.8% 0.00in /  0mm 18 W/m2
18:49 75.9 °F /  24.4 °C 54.6 °F /  12.6 °C 30.21in /  1022.9hPa Calm     47.5% 0.00in /  0mm 16 W/m2
18:54 75.8 °F /  24.3 °C 54.6 °F /  12.6 °C 30.21in /  1022.9hPa Calm     47.9% 0.00in /  0mm 14 W/m2
18:59 75.6 °F /  24.2 °C 55 °F /  12.8 °C 30.21in /  1022.9hPa Calm     48.8% 0.00in /  0mm 12 W/m2
19:04 75.3 °F /  24.1 °C 54.9 °F /  12.7 °C 30.21in /  1022.9hPa Calm     49% 0.00in /  0mm 11 W/m2
19:09 75.1 °F /  23.9 °C 54.3 °F /  12.4 °C 30.21in /  1022.9hPa Calm     48.4% 0.00in /  0mm 9 W/m2
19:14 74.8 °F /  23.8 °C 54.3 °F /  12.4 °C 30.21in /  1022.9hPa Calm     48.8% 0.00in /  0mm 5 W/m2
19:19 74.6 °F /  23.7 °C 54.5 °F /  12.5 °C 30.21in /  1022.9hPa Calm     49.6% 0.00in /  0mm 0 W/m2
19:24 74.2 °F /  23.4 °C 54.7 °F /  12.6 °C 30.21in /  1022.9hPa Calm     50.5% 0.00in /  0mm 0 W/m2
19:29 73.9 °F /  23.3 °C 55.6 °F /  13.1 °C 30.21in /  1022.9hPa Calm     52.8% 0.00in /  0mm 0 W/m2
19:34 73.6 °F /  23.1 °C 56.2 °F /  13.4 °C 30.21in /  1022.9hPa Calm     54.6% 0.00in /  0mm 0 W/m2
19:39 73.3 °F /  22.9 °C 56.4 °F /  13.6 °C 30.22in /  1023.2hPa Calm     55.4% 0.00in /  0mm 0 W/m2
19:44 73 °F /  22.8 °C 56.7 °F /  13.7 °C 30.22in /  1023.2hPa Calm     56.6% 0.00in /  0mm 0 W/m2
19:49 72.7 °F /  22.6 °C 56.8 °F /  13.8 °C 30.22in /  1023.2hPa Calm     57.4% 0.00in /  0mm 0 W/m2
19:54 72.4 °F /  22.4 °C 56.8 °F /  13.8 °C 30.22in /  1023.2hPa Calm     58% 0.00in /  0mm 0 W/m2
19:59 72.2 °F /  22.3 °C 56.6 °F /  13.7 °C 30.23in /  1023.6hPa Calm     58% 0.00in /  0mm 0 W/m2
20:04 71.8 °F /  22.1 °C 56.7 °F /  13.7 °C 30.23in /  1023.6hPa Calm     59% 0.00in /  0mm 0 W/m2
20:09 71.7 °F /  22.1 °C 56.7 °F /  13.7 °C 30.23in /  1023.6hPa Calm     59.3% 0.00in /  0mm 0 W/m2
20:14 71.5 °F /  21.9 °C 56.9 °F /  13.8 °C 30.23in /  1023.6hPa Calm     60% 0.00in /  0mm 0 W/m2
20:19 71.2 °F /  21.8 °C 56.8 °F /  13.8 °C 30.23in /  1023.6hPa Calm     60.4% 0.00in /  0mm 0 W/m2
20:24 71 °F /  21.7 °C 56.9 °F /  13.8 °C 30.23in /  1023.6hPa Calm     61% 0.00in /  0mm 0 W/m2
20:29 70.7 °F /  21.5 °C 56.6 °F /  13.7 °C 30.23in /  1023.6hPa Calm     61% 0.00in /  0mm 0 W/m2
20:34 70.5 °F /  21.4 °C 56.8 °F /  13.8 °C 30.24in /  1023.9hPa Calm     61.8% 0.00in /  0mm 0 W/m2
20:35 70.3 °F /  21.3 °C 56.7 °F /  13.7 °C 30.23in /  1023.6hPa Calm     62% 0.00in /  0mm 0 W/m2
21:00 69.2 °F /  20.7 °C 56.5 °F /  13.6 °C 30.25in /  1024.3hPa Calm     64% 0.00in /  0mm 0 W/m2
21:30 67.9 °F /  19.9 °C 56.6 °F /  13.7 °C 30.24in /  1023.9hPa Calm     67% 0.00in /  0mm 0 W/m2
22:00 66.5 °F /  19.2 °C 56 °F /  13.3 °C 30.25in /  1024.3hPa Calm     69% 0.00in /  0mm 0 W/m2
22:30 64.9 °F /  18.3 °C 56.4 °F /  13.6 °C 30.25in /  1024.3hPa Calm     74% 0.00in /  0mm 0 W/m2
23:30 62.9 °F /  17.2 °C 56.3 °F /  13.5 °C 30.25in /  1024.3hPa Calm     79% 0.00in /  0mm 0 W/m2
Hartford County Weather
Compliments of Weather Underground - 2 mb